createdAt,value
2019-01-20T00:02:10.560Z,51.23
2019-01-20T00:04:40.836Z,49.23
2019-01-20T00:07:12.121Z,51.67
2019-01-20T00:09:43.453Z,51.03
2019-01-20T00:12:13.733Z,51.80
2019-01-20T00:14:44.035Z,49.30
2019-01-20T00:17:14.295Z,49.03
2019-01-20T00:19:44.568Z,46.53
2019-01-20T00:22:14.869Z,49.80
2019-01-20T00:24:45.258Z,49.80
2019-01-20T00:27:15.554Z,48.70
2019-01-20T00:29:45.815Z,49.93
2019-01-20T00:32:16.125Z,48.20
2019-01-20T00:34:46.370Z,50.70
2019-01-20T00:37:16.686Z,48.10
2019-01-20T00:39:47.071Z,47.47
2019-01-20T00:42:17.394Z,46.37
2019-01-20T00:44:47.778Z,47.07
2019-01-20T00:47:18.057Z,47.20
2019-01-20T00:49:48.368Z,46.40
2019-01-20T00:52:18.705Z,48.47
2019-01-20T00:54:48.990Z,47.10
2019-01-20T00:57:19.302Z,47.60
2019-01-20T00:59:49.604Z,49.93
2019-01-20T01:02:19.923Z,47.03
2019-01-20T01:04:50.220Z,47.13
2019-01-20T01:07:20.578Z,50.13
2019-01-20T01:09:50.906Z,47.73
2019-01-20T01:12:21.298Z,49.10
2019-01-20T01:14:51.658Z,49.50
2019-01-20T01:17:21.944Z,50.47
2019-01-20T01:19:52.224Z,49.70
2019-01-20T01:22:22.542Z,49.30
2019-01-20T01:24:52.772Z,51.73
2019-01-20T01:27:23.115Z,50.63
2019-01-20T01:29:53.362Z,48.93
2019-01-20T01:32:23.684Z,49.80
2019-01-20T01:34:53.978Z,49.77
2019-01-20T01:37:24.288Z,47.63
2019-01-20T01:39:54.584Z,47.87
2019-01-20T01:42:24.824Z,49.37
2019-01-20T01:44:55.102Z,47.23
2019-01-20T01:47:25.338Z,50.70
2019-01-20T01:49:55.634Z,56.40
2019-01-20T01:52:25.954Z,51.40
2019-01-20T01:54:56.253Z,51.37
2019-01-20T01:57:26.548Z,50.53
2019-01-20T01:59:56.844Z,51.00
2019-01-20T02:02:27.389Z,52.37
2019-01-20T02:04:57.651Z,53.43
2019-01-20T02:07:27.956Z,55.03
2019-01-20T02:09:58.199Z,53.90
2019-01-20T02:12:28.432Z,56.57
2019-01-20T02:14:58.769Z,52.47
2019-01-20T02:17:28.980Z,54.13
2019-01-20T02:19:59.579Z,56.30
2019-01-20T02:22:29.924Z,61.90
2019-01-20T02:25:00.284Z,63.63
2019-01-20T02:27:30.510Z,63.40
2019-01-20T02:30:00.777Z,66.33
2019-01-20T02:32:31.260Z,64.53
2019-01-20T02:35:01.526Z,66.50
2019-01-20T02:37:31.814Z,66.63
2019-01-20T02:40:02.767Z,68.10
2019-01-20T02:42:33.056Z,66.97
2019-01-20T02:45:03.579Z,69.63
2019-01-20T02:47:34.158Z,72.70
2019-01-20T02:50:05.034Z,68.60
2019-01-20T02:52:35.361Z,63.93
2019-01-20T02:55:06.470Z,66.03
2019-01-20T02:57:36.823Z,65.57
2019-01-20T03:00:16.088Z,66.00
2019-01-20T03:02:46.384Z,65.47
2019-01-20T03:05:17.902Z,64.77
2019-01-20T03:07:48.320Z,62.80
2019-01-20T03:10:18.631Z,64.77
2019-01-20T03:12:48.974Z,64.90
2019-01-20T03:15:19.351Z,66.37
2019-01-20T03:17:49.661Z,63.00
2019-01-20T03:20:21.678Z,57.37
2019-01-20T03:22:52.968Z,62.93
2019-01-20T03:25:24.228Z,69.03
2019-01-20T03:27:54.569Z,67.47
2019-01-20T03:30:24.877Z,67.23
2019-01-20T03:32:56.177Z,67.40
2019-01-20T03:35:27.115Z,68.30
2019-01-20T03:37:57.392Z,69.00
2019-01-20T03:40:27.696Z,69.77
2019-01-20T03:42:58.088Z,69.17
2019-01-20T03:45:28.407Z,69.57
2019-01-20T03:47:58.731Z,68.27
2019-01-20T03:50:29.022Z,67.83
2019-01-20T03:53:06.906Z,61.80
2019-01-20T03:55:37.226Z,63.77
2019-01-20T03:58:07.589Z,57.60
2019-01-20T04:00:37.860Z,56.07
2019-01-20T04:03:08.388Z,56.30
2019-01-20T04:05:38.651Z,56.77
2019-01-20T04:08:08.956Z,58.50
2019-01-20T04:10:39.236Z,56.13
2019-01-20T04:13:09.565Z,61.40
2019-01-20T04:15:39.840Z,61.93
2019-01-20T04:18:10.335Z,57.63
2019-01-20T04:20:40.662Z,57.93
2019-01-20T04:23:10.960Z,58.63
2019-01-20T04:25:41.196Z,56.20
2019-01-20T04:28:11.639Z,56.30
2019-01-20T04:30:41.882Z,58.77
2019-01-20T04:33:12.278Z,62.13
2019-01-20T04:35:42.472Z,69.07
2019-01-20T04:38:12.774Z,71.57
2019-01-20T04:40:42.976Z,69.87
2019-01-20T04:43:13.368Z,70.63
2019-01-20T04:45:43.677Z,75.53
2019-01-20T04:48:14.143Z,71.67
2019-01-20T04:50:58.425Z,70.10
2019-01-20T04:53:29.074Z,69.03
2019-01-20T04:55:59.312Z,71.77
2019-01-20T04:58:29.823Z,73.27
2019-01-20T05:01:00.090Z,72.37
2019-01-20T05:03:30.468Z,72.40
2019-01-20T05:06:01.853Z,74.33
2019-01-20T05:08:32.166Z,73.50
2019-01-20T05:11:02.420Z,73.27
2019-01-20T05:13:32.652Z,74.17
2019-01-20T05:16:02.933Z,75.23
2019-01-20T05:18:33.203Z,77.80
2019-01-20T05:23:43.914Z,75.27
2019-01-20T05:29:07.844Z,76.17
2019-01-20T05:31:43.942Z,79.70
2019-01-20T05:34:14.271Z,76.23
2019-01-20T05:36:44.454Z,77.70
2019-01-20T05:39:14.807Z,77.60
2019-01-20T05:41:45.052Z,76.53
2019-01-20T05:44:15.355Z,77.07
2019-01-20T05:46:51.014Z,75.07
2019-01-20T05:49:21.468Z,75.37
2019-01-20T05:51:51.735Z,77.43
2019-01-20T05:54:22.091Z,77.43
2019-01-20T05:56:52.423Z,78.20
2019-01-20T05:59:22.808Z,79.70
2019-01-20T06:01:53.117Z,78.17
2019-01-20T06:04:23.425Z,75.40
2019-01-20T06:06:53.730Z,76.17
2019-01-20T06:09:24.001Z,76.40
2019-01-20T06:11:54.290Z,79.13
2019-01-20T06:14:36.356Z,75.30
2019-01-20T06:17:06.624Z,74.70
2019-01-20T06:19:36.943Z,74.63
2019-01-20T06:22:07.221Z,76.97
2019-01-20T06:24:37.569Z,76.20
2019-01-20T06:27:07.818Z,73.63
2019-01-20T06:29:38.071Z,71.53
2019-01-20T06:32:08.405Z,75.10
2019-01-20T06:34:38.767Z,72.17
2019-01-20T06:37:09.277Z,74.67
2019-01-20T06:39:39.635Z,74.37
2019-01-20T06:42:09.931Z,71.20
2019-01-20T06:44:40.099Z,66.20
2019-01-20T06:47:10.419Z,70.53
2019-01-20T06:49:40.719Z,67.27
2019-01-20T06:52:11.044Z,61.07
2019-01-20T06:54:41.333Z,70.03
2019-01-20T06:57:11.600Z,69.30
2019-01-20T06:59:41.875Z,70.27
2019-01-20T07:02:12.224Z,60.63
2019-01-20T07:04:42.575Z,57.83
2019-01-20T07:07:12.811Z,58.83
2019-01-20T07:09:43.139Z,60.00
2019-01-20T07:12:15.876Z,69.33
2019-01-20T07:14:46.067Z,63.87
2019-01-20T07:17:16.313Z,73.93
2019-01-20T07:19:46.611Z,62.83
2019-01-20T07:22:17.198Z,76.67
2019-01-20T07:24:47.493Z,59.33
2019-01-20T07:27:17.927Z,72.70
2019-01-20T07:29:48.190Z,73.23
2019-01-20T07:32:18.503Z,68.00
2019-01-20T07:34:48.795Z,68.00
2019-01-20T07:37:19.290Z,73.23
2019-01-20T07:39:49.546Z,67.13
2019-01-20T07:42:19.839Z,63.77
2019-01-20T07:44:50.106Z,69.03
2019-01-20T07:47:20.453Z,65.37
2019-01-20T07:49:50.758Z,64.27
2019-01-20T07:52:21.106Z,62.20
2019-01-20T07:54:51.384Z,60.30
2019-01-20T07:57:21.704Z,57.57
2019-01-20T07:59:52.030Z,55.90
2019-01-20T08:02:22.374Z,54.67
2019-01-20T08:04:52.708Z,51.27
2019-01-20T08:07:23.020Z,50.93
2019-01-20T08:09:53.320Z,49.53
2019-01-20T08:12:23.764Z,50.43
2019-01-20T08:14:54.054Z,50.43
2019-01-20T08:17:24.298Z,51.30
2019-01-20T08:19:55.578Z,50.33
2019-01-20T08:22:25.812Z,53.43
2019-01-20T08:24:56.371Z,56.73
2019-01-20T08:27:26.702Z,57.33
2019-01-20T08:29:56.947Z,56.27
2019-01-20T08:32:27.224Z,57.17
2019-01-20T08:34:57.535Z,59.60
2019-01-20T08:37:28.904Z,61.93
2019-01-20T08:39:59.287Z,58.50
2019-01-20T08:42:29.698Z,60.17
2019-01-20T08:45:00.018Z,61.47
2019-01-20T08:47:38.044Z,61.47
2019-01-20T08:50:11.786Z,60.63
2019-01-20T08:52:42.054Z,58.50
2019-01-20T08:55:12.361Z,58.00
2019-01-20T08:57:42.547Z,58.80
2019-01-20T09:00:17.338Z,61.23
2019-01-20T09:02:48.051Z,59.13
2019-01-20T09:05:18.584Z,59.07
2019-01-20T09:07:48.887Z,57.10
2019-01-20T09:10:22.379Z,58.17
2019-01-20T09:12:52.916Z,59.20
2019-01-20T09:15:23.318Z,58.53
2019-01-20T09:17:53.691Z,60.17
2019-01-20T09:20:24.003Z,58.63
2019-01-20T09:23:00.051Z,60.50
2019-01-20T09:25:32.065Z,61.37
2019-01-20T09:28:02.345Z,59.60
2019-01-20T09:30:33.077Z,59.30
2019-01-20T09:33:03.330Z,60.50
2019-01-20T09:42:55.775Z,55.97
2019-01-20T09:45:28.891Z,58.43
2019-01-20T09:47:59.209Z,61.53
2019-01-20T09:50:29.523Z,61.00
2019-01-20T09:53:01.990Z,60.20
2019-01-20T09:55:32.233Z,59.37
2019-01-20T09:58:02.862Z,55.83
2019-01-20T10:00:33.504Z,60.30
2019-01-20T10:03:07.595Z,59.10
2019-01-20T10:05:37.883Z,57.33
2019-01-20T10:08:08.172Z,60.20
2019-01-20T10:10:38.457Z,61.80
2019-01-20T10:13:08.814Z,62.50
2019-01-20T10:15:39.155Z,60.73
2019-01-20T10:18:09.676Z,62.03
2019-01-20T10:20:39.972Z,62.80
2019-01-20T10:23:10.335Z,64.90
2019-01-20T10:25:40.651Z,62.93
2019-01-20T10:28:13.291Z,65.77
2019-01-20T10:30:43.743Z,68.10
2019-01-20T10:33:14.031Z,71.50
2019-01-20T10:35:58.207Z,73.17
2019-01-20T10:38:28.739Z,69.23
2019-01-20T10:40:59.235Z,64.10
2019-01-20T10:43:29.549Z,59.50
2019-01-20T10:45:59.818Z,57.53
2019-01-20T10:48:30.167Z,55.90
2019-01-20T10:51:00.590Z,55.50
2019-01-20T10:53:31.099Z,56.97
2019-01-20T10:56:01.663Z,56.80
2019-01-20T10:58:32.019Z,56.37
2019-01-20T11:01:02.788Z,53.73
2019-01-20T11:03:33.174Z,50.83
2019-01-20T11:06:03.583Z,49.97
2019-01-20T11:08:34.078Z,48.93
2019-01-20T11:11:04.606Z,48.63
2019-01-20T11:13:35.011Z,50.37
2019-01-20T11:16:07.194Z,46.33
2019-01-20T11:18:37.565Z,48.57
2019-01-20T11:21:08.181Z,49.17
2019-01-20T11:23:38.671Z,48.80
2019-01-20T11:26:09.043Z,48.47
2019-01-20T11:28:39.361Z,50.40
2019-01-20T11:31:09.688Z,51.43
2019-01-20T11:33:39.964Z,50.30
2019-01-20T11:36:10.386Z,51.43
2019-01-20T11:38:40.684Z,51.90
2019-01-20T11:41:10.946Z,54.43
2019-01-20T11:43:41.190Z,53.20
2019-01-20T11:46:11.532Z,53.40
2019-01-20T11:48:41.788Z,52.13
2019-01-20T11:51:12.017Z,52.87
2019-01-20T11:53:42.347Z,49.00
2019-01-20T11:56:12.774Z,47.83
2019-01-20T11:58:42.926Z,46.00
2019-01-20T12:01:13.270Z,44.80
2019-01-20T12:03:43.698Z,45.73
2019-01-20T12:06:13.976Z,44.37
2019-01-20T12:08:44.270Z,41.17
2019-01-20T12:11:14.607Z,36.37
2019-01-20T12:13:44.881Z,38.20
2019-01-20T12:16:15.262Z,40.43
2019-01-20T12:18:45.654Z,36.70
2019-01-20T12:21:16.047Z,35.93
2019-01-20T12:23:48.226Z,33.30
2019-01-20T12:26:28.286Z,33.10
2019-01-20T12:28:58.593Z,35.63
2019-01-20T12:31:28.874Z,37.03
2019-01-20T12:33:59.155Z,35.00
2019-01-20T12:36:29.494Z,36.27
2019-01-20T12:39:00.244Z,34.13
2019-01-20T12:41:30.795Z,32.13
2019-01-20T12:44:01.072Z,33.77
2019-01-20T12:46:31.370Z,34.47
2019-01-20T12:49:01.669Z,34.23
2019-01-20T12:51:32.088Z,36.70
2019-01-20T12:54:02.318Z,34.17
2019-01-20T12:56:32.749Z,33.33
2019-01-20T12:59:03.013Z,32.00
2019-01-20T13:01:36.416Z,31.77
2019-01-20T13:04:06.919Z,32.27
2019-01-20T13:06:37.302Z,32.30
2019-01-20T13:09:09.645Z,30.90
2019-01-20T13:11:40.051Z,31.33
2019-01-20T13:14:10.342Z,31.67
2019-01-20T13:16:40.632Z,30.93
2019-01-20T13:19:10.924Z,31.70
2019-01-20T13:21:41.223Z,31.33
2019-01-20T13:24:11.552Z,31.27
2019-01-20T13:26:41.866Z,32.60
2019-01-20T13:29:12.043Z,33.27
2019-01-20T13:31:42.510Z,32.63
2019-01-20T13:34:12.775Z,30.73
2019-01-20T13:36:43.127Z,31.87
2019-01-20T13:39:14.672Z,34.30
2019-01-20T13:41:44.957Z,34.87
2019-01-20T13:44:15.276Z,34.80
2019-01-20T13:46:46.437Z,36.57
2019-01-20T13:49:16.735Z,32.53
2019-01-20T13:51:46.981Z,33.50
2019-01-20T13:54:17.285Z,34.97
2019-01-20T13:56:47.538Z,35.63
2019-01-20T13:59:17.871Z,35.47
2019-01-20T14:01:48.423Z,32.00
2019-01-20T14:04:18.751Z,34.30
2019-01-20T14:06:49.049Z,35.00
2019-01-20T14:09:19.307Z,30.63
2019-01-20T14:11:50.083Z,27.70
2019-01-20T14:14:20.383Z,29.30
2019-01-20T14:16:50.649Z,24.37
2019-01-20T14:19:21.884Z,28.30
2019-01-20T14:21:52.259Z,26.67
2019-01-20T14:24:22.631Z,27.00
2019-01-20T14:26:52.966Z,26.53
2019-01-20T14:29:23.307Z,27.47
2019-01-20T14:31:53.681Z,28.37
2019-01-20T14:34:23.989Z,27.90
2019-01-20T14:36:54.241Z,28.00
2019-01-20T14:39:25.045Z,29.47
2019-01-20T14:41:55.209Z,27.40
2019-01-20T14:44:25.807Z,28.03
2019-01-20T14:46:56.149Z,29.17
2019-01-20T14:49:26.498Z,27.93
2019-01-20T14:51:56.783Z,28.70
2019-01-20T14:54:27.091Z,27.97
2019-01-20T14:56:57.475Z,29.40
2019-01-20T14:59:29.495Z,28.70
2019-01-20T15:01:59.803Z,28.53
2019-01-20T15:04:30.216Z,28.93
2019-01-20T15:07:00.498Z,29.50
2019-01-20T15:09:30.855Z,29.37
2019-01-20T15:12:01.171Z,30.53
2019-01-20T15:14:31.531Z,30.13
2019-01-20T15:17:01.843Z,27.80
2019-01-20T15:19:32.197Z,29.03
2019-01-20T15:22:02.533Z,29.60
2019-01-20T15:24:32.944Z,30.53
2019-01-20T15:27:03.238Z,27.80
2019-01-20T15:29:33.629Z,30.03
2019-01-20T15:32:03.974Z,30.07
2019-01-20T15:34:34.314Z,30.37
2019-01-20T15:37:04.881Z,30.50
2019-01-20T15:39:35.346Z,30.20
2019-01-20T15:42:05.905Z,31.13
2019-01-20T15:44:38.891Z,30.17
2019-01-20T15:47:09.367Z,30.47
2019-01-20T15:49:39.742Z,33.00
2019-01-20T15:52:10.134Z,30.93
2019-01-20T15:54:40.366Z,32.13
2019-01-20T15:57:10.652Z,32.23
2019-01-20T15:59:40.927Z,29.80
2019-01-20T16:02:11.368Z,28.07
2019-01-20T16:04:41.722Z,28.27
2019-01-20T16:07:11.956Z,27.73
2019-01-20T16:09:42.301Z,28.30
2019-01-20T16:12:12.675Z,29.77
2019-01-20T16:14:44.594Z,30.23
2019-01-20T16:17:15.156Z,30.93
2019-01-20T16:19:49.260Z,31.40
2019-01-20T16:22:19.986Z,26.80
2019-01-20T16:24:51.427Z,28.10
2019-01-20T16:27:21.880Z,29.77
2019-01-20T16:29:57.194Z,31.27
2019-01-20T16:32:27.521Z,30.67
2019-01-20T16:34:57.804Z,30.17
2019-01-20T16:37:28.087Z,30.73
2019-01-20T16:39:58.410Z,27.97
2019-01-20T16:42:28.657Z,29.70
2019-01-20T16:45:01.079Z,28.97
2019-01-20T16:47:31.449Z,27.57
2019-01-20T16:50:01.843Z,28.83
2019-01-20T16:52:32.336Z,29.23
2019-01-20T16:55:02.613Z,26.87
2019-01-20T16:57:32.937Z,26.30
2019-01-20T17:00:03.334Z,21.00
2019-01-20T17:02:34.282Z,23.47
2019-01-20T17:05:05.840Z,24.73
2019-01-20T17:07:36.172Z,24.47
2019-01-20T17:10:10.301Z,26.37
2019-01-20T17:12:40.805Z,22.40
2019-01-20T17:15:13.719Z,23.80
2019-01-20T17:17:44.003Z,24.80
2019-01-20T17:20:16.445Z,24.30
2019-01-20T17:22:47.133Z,25.03
2019-01-20T17:25:18.541Z,24.47
2019-01-20T17:27:48.826Z,24.40
2019-01-20T17:30:21.343Z,24.17
2019-01-20T17:32:51.698Z,22.97
2019-01-20T17:35:23.113Z,21.33
2019-01-20T17:37:53.634Z,24.33
2019-01-20T17:40:25.502Z,24.70
2019-01-20T17:42:56.276Z,23.20
2019-01-20T17:45:29.191Z,23.37
2019-01-20T17:47:59.695Z,22.80
2019-01-20T17:50:32.377Z,21.13
2019-01-20T17:53:02.951Z,24.67
2019-01-20T17:55:38.432Z,25.77
2019-01-20T17:58:08.743Z,25.67
2019-01-20T18:00:48.361Z,24.43
2019-01-20T18:03:18.766Z,25.37
2019-01-20T18:05:49.243Z,24.97
2019-01-20T18:08:19.600Z,24.20
2019-01-20T18:10:49.835Z,25.47
2019-01-20T18:13:21.665Z,24.23
2019-01-20T18:15:54.581Z,24.00
2019-01-20T18:21:11.306Z,23.73
2019-01-20T18:23:41.621Z,25.17
2019-01-20T18:28:54.231Z,23.67
2019-01-20T18:31:30.790Z,25.47
2019-01-20T18:34:01.185Z,26.50
2019-01-20T18:36:31.605Z,24.80
2019-01-20T18:39:08.445Z,26.30
2019-01-20T18:41:39.416Z,24.63
2019-01-20T18:44:13.757Z,25.70
2019-01-20T18:46:44.139Z,24.80
2019-01-20T18:49:14.441Z,25.33
2019-01-20T18:51:44.996Z,25.10
2019-01-20T18:54:15.348Z,24.30
2019-01-20T18:56:45.645Z,24.43
2019-01-20T18:59:15.973Z,25.80
2019-01-20T19:01:46.259Z,24.80
2019-01-20T19:04:16.718Z,25.83
2019-01-20T19:06:47.112Z,25.83
2019-01-20T19:12:05.389Z,26.97
2019-01-20T19:14:35.893Z,26.43
2019-01-20T19:17:06.281Z,29.10
2019-01-20T19:19:36.621Z,27.90
2019-01-20T19:22:07.115Z,24.97
2019-01-20T19:24:37.419Z,29.10
2019-01-20T19:27:07.864Z,29.77
2019-01-20T19:29:41.008Z,29.93
2019-01-20T19:32:11.336Z,29.43
2019-01-20T19:34:42.762Z,30.53
2019-01-20T19:37:13.057Z,30.93
2019-01-20T19:39:50.375Z,30.77
2019-01-20T19:42:15.490Z,30.57
2019-01-20T19:44:45.954Z,32.13
2019-01-20T19:47:16.306Z,32.77
2019-01-20T19:49:46.643Z,34.13
2019-01-20T19:52:16.921Z,32.50
2019-01-20T19:54:47.325Z,34.17
2019-01-20T19:57:17.603Z,34.17
2019-01-20T19:59:47.922Z,36.47
2019-01-20T20:02:18.203Z,35.10
2019-01-20T20:04:48.578Z,36.87
2019-01-20T20:07:19.415Z,36.83
2019-01-20T20:09:49.668Z,35.63
2019-01-20T20:12:20.107Z,38.50
2019-01-20T20:14:50.489Z,36.73
2019-01-20T20:17:20.759Z,38.33
2019-01-20T20:25:39.194Z,37.27
2019-01-20T20:28:09.639Z,36.97
2019-01-20T20:30:40.028Z,40.40
2019-01-20T20:33:09.831Z,39.83
2019-01-20T20:35:40.098Z,38.53
2019-01-20T20:38:10.441Z,37.00
2019-01-20T20:40:40.830Z,41.13
2019-01-20T20:43:11.050Z,39.77
2019-01-20T20:45:41.421Z,40.83
2019-01-20T20:48:11.810Z,40.57
2019-01-20T20:50:42.168Z,40.47
2019-01-20T20:53:12.597Z,41.50
2019-01-20T20:55:42.963Z,40.83
2019-01-20T20:58:17.135Z,41.67
2019-01-20T21:03:58.843Z,40.60
2019-01-20T21:06:31.759Z,40.13
2019-01-20T21:09:02.174Z,39.67
2019-01-20T21:11:34.116Z,41.93
2019-01-20T21:14:05.480Z,41.47
2019-01-20T21:16:38.021Z,42.10
2019-01-20T21:19:07.657Z,41.10
2019-01-20T21:21:37.961Z,43.03
2019-01-20T21:24:08.290Z,41.60
2019-01-20T21:26:38.624Z,42.57
2019-01-20T21:29:08.959Z,44.23
2019-01-20T21:31:39.288Z,44.03
2019-01-20T21:34:09.614Z,43.40
2019-01-20T21:36:40.025Z,43.33
2019-01-20T21:39:10.447Z,44.90
2019-01-20T21:41:41.003Z,46.03
2019-01-20T21:44:11.249Z,43.70
2019-01-20T21:46:45.390Z,47.53
2019-01-20T21:49:15.295Z,47.17
2019-01-20T21:51:45.582Z,46.57
2019-01-20T21:54:15.872Z,47.03
2019-01-20T21:56:46.519Z,45.93
2019-01-20T21:59:16.777Z,46.40
2019-01-20T22:01:47.108Z,44.17
2019-01-20T22:04:17.402Z,45.37
2019-01-20T22:06:50.721Z,45.33
2019-01-20T22:09:21.019Z,43.97
2019-01-20T22:11:53.591Z,44.53
2019-01-20T22:14:24.889Z,46.03
2019-01-20T22:16:55.126Z,44.67
2019-01-20T22:19:26.516Z,46.80
2019-01-20T22:21:56.815Z,44.20
2019-01-20T22:24:27.061Z,45.87
2019-01-20T22:26:57.601Z,45.00
2019-01-20T22:29:28.195Z,45.83
2019-01-20T22:31:58.453Z,45.30
2019-01-20T22:34:28.823Z,46.40
2019-01-20T22:36:59.101Z,46.93
2019-01-20T22:39:29.654Z,44.07
2019-01-20T22:41:59.915Z,44.03
2019-01-20T22:44:30.135Z,45.50
2019-01-20T22:47:00.621Z,45.27
2019-01-20T22:49:30.891Z,44.90
2019-01-20T22:52:01.162Z,43.87
2019-01-20T22:54:31.456Z,44.73
2019-01-20T22:57:01.707Z,44.10
2019-01-20T22:59:32.062Z,44.43
2019-01-20T23:02:02.405Z,45.70
2019-01-20T23:04:32.707Z,45.63
2019-01-20T23:07:03.030Z,45.20
2019-01-20T23:09:33.343Z,47.53
2019-01-20T23:12:03.611Z,45.43
2019-01-20T23:14:33.853Z,46.40
2019-01-20T23:17:07.649Z,47.53
2019-01-20T23:19:35.378Z,46.47
2019-01-20T23:22:05.719Z,48.07
2019-01-20T23:24:35.971Z,48.33
2019-01-20T23:27:06.518Z,42.93
2019-01-20T23:29:36.891Z,46.07
2019-01-20T23:32:07.153Z,48.37
2019-01-20T23:34:37.446Z,46.20
2019-01-20T23:37:07.732Z,47.07
2019-01-20T23:39:38.038Z,47.87
2019-01-20T23:42:08.286Z,47.33
2019-01-20T23:44:38.603Z,48.07
2019-01-20T23:47:15.039Z,47.70
2019-01-20T23:49:40.722Z,45.37
2019-01-20T23:52:10.968Z,47.17
2019-01-20T23:54:41.306Z,46.00
2019-01-20T23:57:11.546Z,46.73
2019-01-20T23:59:41.942Z,45.87
